Time;durP1;ratioP1;P1;durP2;ratioP2;P2;SDS_P1;SDS_P2;PMS_P1;PMS_P2;Temp;Humidity;BMP_temperature;BMP_pressure;BME280_temperature;BME280_humidity;BME280_pressure;Samples;Min_cycle;Max_cycle;Signal;HPM_P1;HPM_P2
2023/07/04 00:01:48;;;;;;;7.18;3.17;;;;;;;21.68;60.31;100056.97;5119594;28;20019;-75
2023/07/04 00:04:19;;;;;;;9.63;4.00;;;;;;;21.67;60.26;100055.22;5119452;28;20040;-75
2023/07/04 00:06:47;;;;;;;10.10;3.60;;;;;;;21.67;60.17;100051.66;5119621;28;20046;-75
2023/07/04 00:09:12;;;;;;;9.30;3.80;;;;;;;21.63;60.21;100053.63;5119111;28;20027;-75
2023/07/04 00:11:38;;;;;;;8.45;4.00;;;;;;;21.59;60.23;100050.25;5119355;28;20027;-75
2023/07/04 00:14:03;;;;;;;9.10;3.27;;;;;;;21.54;60.75;100051.44;5119032;28;20038;-76
2023/07/04 00:16:29;;;;;;;8.20;3.30;;;;;;;21.48;60.56;100047.28;5119201;28;20098;-75
2023/07/04 00:18:54;;;;;;;11.50;3.30;;;;;;;21.39;60.88;100043.28;5100606;28;20029;-75
2023/07/04 00:21:19;;;;;;;10.05;3.78;;;;;;;21.33;61.14;100043.59;5119046;28;20070;-75
2023/07/04 00:23:52;;;;;;;8.90;3.60;;;;;;;21.30;61.24;100044.63;5118903;28;20042;-75
2023/07/04 00:26:20;;;;;;;11.55;3.80;;;;;;;21.31;60.93;100045.47;5100731;28;20126;-75
2023/07/04 00:28:46;;;;;;;8.13;3.50;;;;;;;21.30;61.25;100046.44;5118693;28;20032;-75
2023/07/04 00:31:14;;;;;;;8.88;3.58;;;;;;;21.22;61.46;100053.06;5118843;28;20051;-75
2023/07/04 00:33:40;;;;;;;9.60;3.33;;;;;;;21.13;61.80;100058.03;5118708;28;20027;-75
2023/07/04 00:36:09;;;;;;;11.90;3.92;;;;;;;21.09;61.74;100041.25;5100525;28;20048;-75
2023/07/04 00:38:36;;;;;;;9.35;3.67;;;;;;;21.09;62.14;100057.31;5100369;28;20027;-75
2023/07/04 00:41:04;;;;;;;9.33;3.60;;;;;;;21.07;61.79;100046.69;5118776;28;20059;-75
2023/07/04 00:44:14;;;;;;;11.10;4.03;;;;;;;21.06;62.39;100046.75;5118501;28;20031;-75
2023/07/04 00:46:39;;;;;;;10.13;4.05;;;;;;;21.01;62.32;100048.81;5117830;28;20418;-75
2023/07/04 00:49:20;;;;;;;11.15;3.80;;;;;;;21.00;62.08;100047.09;5118376;28;20023;-75
2023/07/04 00:51:58;;;;;;;11.57;4.35;;;;;;;20.94;62.52;100048.25;5118352;28;20031;-75
2023/07/04 00:54:29;;;;;;;9.10;3.87;;;;;;;20.86;62.86;100043.31;5118569;28;20035;-75
2023/07/04 00:57:02;;;;;;;9.15;3.95;;;;;;;20.78;62.85;100048.13;5118237;28;20100;-75
2023/07/04 00:59:31;;;;;;;9.88;4.05;;;;;;;20.70;63.09;100045.84;5118148;28;20023;-75
2023/07/04 01:01:57;;;;;;;9.77;4.07;;;;;;;20.64;63.18;100044.34;5099960;28;20057;-75
2023/07/04 01:04:23;;;;;;;11.75;3.90;;;;;;;20.61;63.43;100039.13;5118160;28;20112;-75
2023/07/04 01:06:56;;;;;;;11.33;4.33;;;;;;;20.58;63.65;100041.13;5117806;28;20036;-75
2023/07/04 01:09:23;;;;;;;9.13;3.97;;;;;;;20.58;63.58;100046.47;5117887;28;20398;-75
2023/07/04 01:11:50;;;;;;;9.70;4.38;;;;;;;20.60;63.37;100047.25;5118107;28;20062;-75
2023/07/04 01:14:19;;;;;;;12.27;4.55;;;;;;;20.57;63.67;100042.91;5117948;28;20126;-75
2023/07/04 01:16:45;;;;;;;9.63;4.13;;;;;;;20.54;63.45;100051.09;5117814;28;20024;-75
2023/07/04 01:19:15;;;;;;;9.07;3.80;;;;;;;20.53;63.86;100048.50;5115369;28;20418;-75
2023/07/04 01:21:44;;;;;;;11.23;4.40;;;;;;;20.50;63.68;100037.03;5117970;28;20514;-75
2023/07/04 01:24:23;;;;;;;13.98;4.32;;;;;;;20.44;63.80;100045.31;5117869;28;20027;-75
2023/07/04 01:26:49;;;;;;;8.85;4.10;;;;;;;20.39;64.07;100046.50;5099919;28;20038;-75
2023/07/04 01:29:16;;;;;;;11.33;4.80;;;;;;;20.37;63.85;100039.41;5099567;28;20099;-75
2023/07/04 01:31:44;;;;;;;10.90;4.10;;;;;;;20.32;64.15;100044.09;5117806;28;20062;-76
2023/07/04 01:34:11;;;;;;;10.73;4.45;;;;;;;20.31;64.17;100047.72;5117633;28;20428;-75
2023/07/04 01:36:38;;;;;;;12.35;4.43;;;;;;;20.31;64.31;100042.38;5117740;28;20069;-75
2023/07/04 01:39:08;;;;;;;9.90;4.45;;;;;;;20.22;64.64;100048.19;5117614;28;20024;-75
2023/07/04 01:41:35;;;;;;;9.60;4.20;;;;;;;20.11;64.52;100051.38;5117497;28;20019;-75
2023/07/04 01:44:04;;;;;;;8.48;3.60;;;;;;;20.03;64.60;100045.53;5117279;28;20047;-75
2023/07/04 01:46:30;;;;;;;10.13;4.20;;;;;;;20.02;64.87;100050.00;5117478;28;20102;-75
2023/07/04 01:48:56;;;;;;;9.02;4.00;;;;;;;20.05;64.71;100055.19;5117582;28;20015;-75
2023/07/04 01:51:26;;;;;;;11.63;4.20;;;;;;;20.02;65.14;100055.34;5098974;28;20019;-75
2023/07/04 01:53:52;;;;;;;9.43;4.07;;;;;;;20.00;64.56;100051.88;5117524;28;20027;-75
2023/07/04 01:56:17;;;;;;;9.48;4.05;;;;;;;20.01;64.99;100053.59;5117160;28;20047;-75
2023/07/04 01:58:43;;;;;;;9.80;4.13;;;;;;;20.04;64.63;100047.25;5117109;28;20098;-75
2023/07/04 02:01:08;;;;;;;8.87;3.90;;;;;;;20.09;64.97;100047.91;5116653;28;20031;-75
2023/07/04 02:03:34;;;;;;;11.82;4.38;;;;;;;20.15;64.85;100049.44;5117150;28;20110;-75
2023/07/04 02:06:01;;;;;;;11.67;3.77;;;;;;;20.19;64.91;100045.66;5117074;28;20027;-75
2023/07/04 02:08:26;;;;;;;10.23;3.88;;;;;;;20.12;64.70;100045.06;5117130;28;20020;-75
2023/07/04 02:10:51;;;;;;;10.20;4.17;;;;;;;20.10;65.36;100030.91;5098729;28;20076;-75
2023/07/04 02:13:17;;;;;;;11.37;4.00;;;;;;;20.07;65.06;100034.59;5117012;28;20019;-75
2023/07/04 02:15:42;;;;;;;11.33;3.93;;;;;;;20.05;65.27;100033.81;5116611;28;20270;-75
2023/07/04 02:18:07;;;;;;;13.23;4.33;;;;;;;20.02;65.18;100033.94;5115334;28;20054;-75
2023/07/04 02:20:33;;;;;;;9.77;4.27;;;;;;;20.04;65.43;100036.56;5117227;28;20027;-75
2023/07/04 02:22:58;;;;;;;9.47;3.83;;;;;;;20.05;65.28;100033.81;5117021;28;20139;-75
2023/07/04 02:25:23;;;;;;;8.55;4.05;;;;;;;20.09;65.58;100034.53;5116940;28;20053;-75
2023/07/04 02:27:49;;;;;;;11.50;3.90;;;;;;;20.08;65.63;100030.97;5116935;28;20080;-75
2023/07/04 02:30:14;;;;;;;13.17;4.10;;;;;;;20.09;65.47;100023.84;5116876;28;20030;-75
2023/07/04 02:32:40;;;;;;;10.03;4.17;;;;;;;20.12;65.22;100028.16;5117277;28;20016;-75
2023/07/04 02:35:05;;;;;;;9.87;4.07;;;;;;;20.12;65.35;100029.03;5117129;28;20020;-75
2023/07/04 02:37:31;;;;;;;8.63;3.90;;;;;;;20.13;65.39;100028.09;5098594;28;20024;-75
2023/07/04 02:39:57;;;;;;;10.20;3.50;;;;;;;20.14;65.08;100026.31;5117052;28;20027;-75
2023/07/04 02:42:22;;;;;;;10.18;4.03;;;;;;;20.17;65.22;100026.16;5117140;28;20077;-75
2023/07/04 02:44:47;;;;;;;14.83;3.80;;;;;;;20.22;65.00;100029.47;5111171;28;20031;-75
2023/07/04 02:47:13;;;;;;;8.53;3.80;;;;;;;20.28;65.05;100030.97;5116713;28;20066;-75
2023/07/04 02:49:38;;;;;;;9.33;3.97;;;;;;;20.27;64.96;100027.44;5116744;28;20381;-75
2023/07/04 02:52:05;;;;;;;12.00;3.75;;;;;;;20.26;65.43;100028.38;5116907;28;20031;-75
2023/07/04 02:54:30;;;;;;;8.77;3.80;;;;;;;20.26;65.27;100028.38;5116827;28;20106;-75
2023/07/04 02:56:56;;;;;;;9.03;3.87;;;;;;;20.24;65.32;100024.91;5095029;28;20075;-75
2023/07/04 02:59:21;;;;;;;10.43;4.23;;;;;;;20.24;65.33;100024.91;5094889;28;20048;-75
2023/07/04 03:01:47;;;;;;;11.30;4.20;;;;;;;20.26;65.19;100025.69;5096431;28;20149;-75
2023/07/04 03:04:13;;;;;;;9.77;3.80;;;;;;;20.28;65.50;100026.50;5096468;28;20031;-75
2023/07/04 03:06:39;;;;;;;9.60;4.00;;;;;;;20.28;65.12;100023.81;5096534;28;20495;-75
2023/07/04 03:09:04;;;;;;;9.10;4.30;;;;;;;20.28;65.33;100023.81;5096389;28;21150;-75
2023/07/04 03:11:30;;;;;;;10.97;4.17;;;;;;;20.29;65.42;100030.91;5096134;28;20106;-75
2023/07/04 03:13:55;;;;;;;10.23;3.67;;;;;;;20.29;65.24;100033.56;5100052;28;20024;-75
2023/07/04 03:16:21;;;;;;;9.02;3.70;;;;;;;20.32;65.04;100036.09;5099979;28;20023;-75
2023/07/04 03:18:46;;;;;;;10.43;3.37;;;;;;;20.36;65.27;100036.81;5097865;28;20020;-75
2023/07/04 03:21:11;;;;;;;7.00;3.60;;;;;;;20.41;65.04;100033.94;5100061;28;20024;-75
2023/07/04 03:23:37;;;;;;;9.48;3.90;;;;;;;20.41;65.03;100029.44;5099938;28;20020;-75
2023/07/04 03:26:03;;;;;;;7.93;3.20;;;;;;;20.41;64.96;100033.94;5100185;28;20020;-75
2023/07/04 03:28:28;;;;;;;10.10;3.60;;;;;;;20.42;64.62;100030.31;5099780;28;20028;-75
2023/07/04 03:30:54;;;;;;;9.60;3.75;;;;;;;20.42;65.12;100031.16;5099660;28;20492;-75
2023/07/04 03:33:20;;;;;;;9.80;3.57;;;;;;;20.42;64.99;100041.84;5099723;28;20028;-75
2023/07/04 03:35:45;;;;;;;8.63;3.60;;;;;;;20.42;64.71;100038.34;5099656;28;20020;-75
2023/07/04 03:38:11;;;;;;;11.60;3.90;;;;;;;20.44;64.66;100037.31;5099794;28;20016;-75
2023/07/04 03:40:36;;;;;;;9.13;3.65;;;;;;;20.43;64.89;100042.75;5099613;28;20081;-75
2023/07/04 03:43:02;;;;;;;8.20;3.73;;;;;;;20.43;65.32;100040.06;5099387;28;20024;-75
2023/07/04 03:45:27;;;;;;;8.57;3.60;;;;;;;20.42;64.99;100046.34;5099411;28;20472;-75
2023/07/04 03:47:53;;;;;;;7.67;3.13;;;;;;;20.42;65.31;100038.34;5099444;28;20020;-75
2023/07/04 03:50:18;;;;;;;9.95;4.10;;;;;;;20.41;64.93;100044.63;5099302;28;20016;-75
2023/07/04 03:52:44;;;;;;;9.73;3.47;;;;;;;20.42;64.93;100043.69;5099602;28;20084;-75
2023/07/04 03:55:10;;;;;;;10.65;3.83;;;;;;;20.46;64.69;100039.91;5099212;28;20024;-75
2023/07/04 03:57:35;;;;;;;7.47;3.80;;;;;;;20.47;65.08;100037.13;5113360;28;20047;-75
2023/07/04 04:00:01;;;;;;;9.50;3.67;;;;;;;20.47;65.24;100028.28;5119498;28;20413;-75
2023/07/04 04:02:26;;;;;;;9.10;3.70;;;;;;;20.50;64.65;100036.13;5119923;28;20027;-75
2023/07/04 04:04:51;;;;;;;8.60;4.00;;;;;;;20.52;64.90;100036.94;5119531;28;20372;-75
2023/07/04 04:07:17;;;;;;;12.23;3.90;;;;;;;20.52;65.01;100047.63;5119278;28;20441;-75
2023/07/04 04:09:43;;;;;;;8.70;3.63;;;;;;;20.50;64.72;100036.13;5119324;28;20023;-75
2023/07/04 04:12:09;;;;;;;12.02;4.28;;;;;;;20.49;65.03;100037.94;5119761;28;20399;-75
2023/07/04 04:14:36;;;;;;;10.50;4.13;;;;;;;20.49;64.99;100037.09;5119184;28;20081;-75
2023/07/04 04:17:02;;;;;;;10.17;3.40;;;;;;;20.47;64.93;100030.94;5100270;28;20398;-75
2023/07/04 04:19:28;;;;;;;10.10;3.90;;;;;;;20.46;65.38;100026.53;5118231;28;20023;-75
2023/07/04 04:21:54;;;;;;;9.30;3.78;;;;;;;20.47;65.46;100021.09;5119174;28;20036;-75
2023/07/04 04:24:20;;;;;;;11.20;3.70;;;;;;;20.51;64.95;100019.16;5118632;28;20035;-75
2023/07/04 04:26:46;;;;;;;9.38;3.42;;;;;;;20.55;65.10;100018.03;5101052;28;20035;-75
2023/07/04 04:29:14;;;;;;;8.93;4.10;;;;;;;20.60;64.71;100017.81;5100451;28;20025;-75
2023/07/04 04:31:39;;;;;;;12.02;3.47;;;;;;;20.62;64.94;100014.16;5100764;28;20034;-75
2023/07/04 04:34:06;;;;;;;10.47;3.70;;;;;;;20.61;64.58;100009.72;5119051;28;20044;-75
2023/07/04 04:36:32;;;;;;;11.05;4.22;;;;;;;20.61;64.84;100020.41;5119056;28;20111;-75
2023/07/04 04:38:59;;;;;;;8.98;3.83;;;;;;;20.61;64.60;100015.06;5119062;28;20098;-75
2023/07/04 04:41:29;;;;;;;11.27;4.30;;;;;;;20.59;65.12;100024.13;5119218;28;20035;-75
2023/07/04 04:43:56;;;;;;;9.57;4.05;;;;;;;20.57;64.67;100018.84;5118448;28;20076;-75
2023/07/04 04:46:22;;;;;;;8.13;3.80;;;;;;;20.54;65.38;100021.66;5100518;28;20027;-76
2023/07/04 04:48:47;;;;;;;8.63;3.78;;;;;;;20.55;64.93;100015.38;5105237;28;20024;-75
2023/07/04 04:51:13;;;;;;;9.13;4.10;;;;;;;20.60;65.02;100024.03;5118805;28;20102;-75
2023/07/04 04:53:41;;;;;;;8.63;3.87;;;;;;;20.63;64.85;100018.56;5118772;28;20025;-75
2023/07/04 04:56:07;;;;;;;9.77;3.80;;;;;;;20.60;65.55;100026.69;5118548;28;20023;-75
2023/07/04 04:58:33;;;;;;;11.32;3.95;;;;;;;20.54;65.29;100024.34;5118374;28;20027;-75
2023/07/04 05:01:14;;;;;;;12.02;4.65;;;;;;;20.52;65.50;100020.88;5118526;28;20475;-75
2023/07/04 05:03:41;;;;;;;14.40;4.50;;;;;;;20.55;65.67;100031.41;5118331;28;20020;-75
2023/07/04 05:06:06;;;;;;;8.95;4.53;;;;;;;20.55;65.79;100027.91;5118198;28;20027;-75
2023/07/04 05:08:31;;;;;;;9.20;4.30;;;;;;;20.55;65.85;100035.91;5118364;28;20080;-75
2023/07/04 05:11:04;;;;;;;10.52;4.05;;;;;;;20.58;65.67;100033.94;5118286;28;20023;-75
2023/07/04 05:13:30;;;;;;;11.60;4.50;;;;;;;20.61;65.62;100035.59;5118059;28;20031;-75
2023/07/04 05:16:03;;;;;;;10.57;4.53;;;;;;;20.62;65.66;100037.34;5118069;28;20050;-75
2023/07/04 05:18:30;;;;;;;10.88;4.47;;;;;;;20.60;65.86;100034.72;5115784;28;20395;-75
2023/07/04 05:21:04;;;;;;;12.63;4.57;;;;;;;20.58;65.96;100038.44;5118198;28;20062;-75
2023/07/04 05:23:30;;;;;;;10.30;4.50;;;;;;;20.57;65.82;100037.56;5118076;28;20036;-75
2023/07/04 05:26:16;;;;;;;9.90;4.07;;;;;;;20.58;66.34;100041.97;5099495;28;20058;-75
2023/07/04 05:28:42;;;;;;;11.55;4.32;;;;;;;20.60;66.49;100044.56;5117751;28;20107;-75
2023/07/04 05:31:10;;;;;;;11.43;4.07;;;;;;;20.65;65.79;100043.41;5118005;28;20059;-75
2023/07/04 05:36:12;;;;;;;9.60;4.33;;;;;;;20.75;65.76;100033.13;5116758;28;20034;-75
2023/07/04 05:38:38;;;;;;;10.30;4.13;;;;;;;20.79;66.16;100033.81;5098785;28;20037;-75
2023/07/04 05:41:12;;;;;;;10.98;4.82;;;;;;;20.79;66.42;100036.50;5099814;28;20095;-75
2023/07/04 05:43:38;;;;;;;9.35;4.60;;;;;;;20.78;65.91;100030.28;5117638;28;20027;-75
2023/07/04 05:46:05;;;;;;;11.87;4.80;;;;;;;20.90;65.89;100034.19;5116671;28;20035;-75
2023/07/04 05:48:30;;;;;;;10.93;4.40;;;;;;;20.96;65.42;100032.97;5117529;28;20103;-75
2023/07/04 05:50:59;;;;;;;10.07;4.20;;;;;;;21.07;65.47;100035.97;5117154;28;20114;-75
2023/07/04 05:53:28;;;;;;;11.80;4.57;;;;;;;21.19;65.37;100042.50;5116967;28;20027;-74
2023/07/04 05:56:09;;;;;;;11.73;4.53;;;;;;;21.29;65.15;100042.91;5108907;28;20051;-76
2023/07/04 05:58:35;;;;;;;13.20;5.13;;;;;;;21.34;64.63;100042.63;5113668;28;20518;-76
2023/07/04 06:01:10;;;;;;;11.50;5.03;;;;;;;21.31;64.82;100041.00;5116076;28;20035;-76
2023/07/04 06:03:37;;;;;;;10.55;4.50;;;;;;;21.32;64.91;100037.38;5116974;28;20076;-76
2023/07/04 06:06:04;;;;;;;11.38;4.72;;;;;;;21.34;64.84;100040.84;5116405;28;20944;-77
2023/07/04 06:08:29;;;;;;;10.60;4.57;;;;;;;21.52;64.16;100044.34;5117137;28;20028;-76
2023/07/04 06:11:04;;;;;;;10.52;4.65;;;;;;;21.63;64.28;100034.88;5111063;28;20499;-76
2023/07/04 06:13:30;;;;;;;12.47;5.13;;;;;;;21.73;63.89;100036.13;5110237;28;20080;-75
2023/07/04 06:15:58;;;;;;;10.40;5.13;;;;;;;21.75;63.92;100033.38;5117253;28;20060;-76
2023/07/04 06:18:23;;;;;;;9.60;5.18;;;;;;;21.82;64.07;100044.59;5115201;28;20124;-76
2023/07/04 06:20:48;;;;;;;13.00;5.47;;;;;;;21.86;63.60;100051.56;5116711;28;20494;-76
2023/07/04 06:23:14;;;;;;;12.27;5.20;;;;;;;21.89;63.68;100046.88;5116580;28;20484;-75
2023/07/04 06:25:40;;;;;;;11.45;5.05;;;;;;;21.92;63.19;100035.13;5116657;28;20023;-75
2023/07/04 06:28:05;;;;;;;12.50;5.53;;;;;;;21.96;63.33;100033.16;5116433;28;20365;-75
2023/07/04 06:30:34;;;;;;;10.75;4.80;;;;;;;21.91;63.51;100046.81;5117170;28;20027;-75
2023/07/04 06:33:02;;;;;;;12.07;5.07;;;;;;;21.87;63.80;100037.22;5117409;28;20034;-74
2023/07/04 06:35:27;;;;;;;10.17;4.57;;;;;;;22.02;63.22;100039.00;5117044;28;20027;-74
2023/07/04 06:37:53;;;;;;;10.02;4.65;;;;;;;22.08;62.95;100036.00;5117200;28;20483;-74
2023/07/04 06:40:18;;;;;;;12.87;4.77;;;;;;;22.45;62.81;100045.59;5117050;28;20058;-72
2023/07/04 06:42:43;;;;;;;11.63;4.80;;;;;;;22.80;61.96;100042.72;5116827;28;20020;-73
2023/07/04 06:45:09;;;;;;;9.40;4.60;;;;;;;22.94;61.51;100048.13;5116918;28;20024;-73
2023/07/04 06:47:34;;;;;;;10.27;4.47;;;;;;;23.02;61.15;100045.00;5118823;28;20024;-73
2023/07/04 06:50:00;;;;;;;9.93;4.73;;;;;;;23.03;61.00;100051.19;5120687;28;20024;-74
2023/07/04 06:52:26;;;;;;;12.23;4.65;;;;;;;23.02;61.31;100047.66;5121152;28;20027;-74
2023/07/04 06:54:51;;;;;;;10.43;5.30;;;;;;;23.05;61.34;100052.00;5121074;28;20028;-74
2023/07/04 06:57:18;;;;;;;10.47;4.90;;;;;;;23.01;61.07;100048.63;5117680;28;20039;-74
2023/07/04 06:59:45;;;;;;;12.45;5.63;;;;;;;22.97;61.40;100048.91;5098249;28;20012;-73
2023/07/04 07:02:14;;;;;;;11.95;4.80;;;;;;;23.01;61.25;100042.38;5120418;28;20380;-73
2023/07/04 07:04:40;;;;;;;10.55;4.90;;;;;;;23.02;61.02;100044.09;5120418;28;20034;-73
2023/07/04 07:07:09;;;;;;;12.17;5.17;;;;;;;23.20;60.77;100040.31;5118414;28;20032;-74
2023/07/04 07:09:36;;;;;;;12.60;5.50;;;;;;;23.31;60.59;100046.91;5119858;28;20034;-74
2023/07/04 07:12:02;;;;;;;13.07;5.63;;;;;;;23.33;60.85;100039.63;5111229;28;20114;-74
2023/07/04 07:14:29;;;;;;;10.30;4.53;;;;;;;23.47;60.33;100045.00;5120139;28;20016;-74
2023/07/04 07:16:56;;;;;;;9.02;5.13;;;;;;;23.57;60.10;100047.13;5101645;28;20027;-74
2023/07/04 07:19:23;;;;;;;10.40;4.85;;;;;;;23.57;60.04;100047.97;5117720;28;20122;-74
2023/07/04 07:21:49;;;;;;;11.35;4.60;;;;;;;23.62;60.03;100043.16;5120379;28;20030;-74
2023/07/04 07:24:15;;;;;;;12.70;4.90;;;;;;;23.75;59.78;100055.84;5119754;28;20039;-73
2023/07/04 07:26:40;;;;;;;15.63;5.30;;;;;;;23.84;59.68;100051.72;5120084;28;20025;-74
2023/07/04 07:29:06;;;;;;;14.40;5.20;;;;;;;23.92;59.44;100057.47;5119382;28;20027;-74
2023/07/04 07:31:31;;;;;;;13.13;4.97;;;;;;;23.97;59.55;100054.50;5120276;28;20067;-74
2023/07/04 07:33:56;;;;;;;11.13;4.70;;;;;;;23.96;59.63;100056.31;5120178;28;20024;-75
2023/07/04 07:36:26;;;;;;;9.67;5.10;;;;;;;24.05;59.24;100058.47;5119992;28;20028;-74
2023/07/04 07:38:53;;;;;;;9.02;4.80;;;;;;;24.14;58.90;100056.13;5119852;28;20471;-74
2023/07/04 07:41:21;;;;;;;9.45;4.57;;;;;;;24.31;58.52;100050.53;5119982;28;20024;-74
2023/07/04 07:43:46;;;;;;;12.65;4.90;;;;;;;24.53;58.35;100046.44;5119469;28;20046;-74
2023/07/04 07:46:17;;;;;;;10.47;4.37;;;;;;;24.82;58.22;100049.03;5101062;28;20427;-74
2023/07/04 07:48:43;;;;;;;9.73;4.80;;;;;;;25.16;57.10;100053.94;5101065;28;20024;-74
2023/07/04 07:51:11;;;;;;;10.40;4.87;;;;;;;25.45;56.53;100043.84;5119729;28;20102;-74
2023/07/04 07:53:37;;;;;;;11.88;5.15;;;;;;;25.54;56.65;100047.72;5119369;28;20034;-73
2023/07/04 07:56:04;;;;;;;9.43;5.00;;;;;;;25.56;55.66;100053.03;5119682;28;20023;-73
2023/07/04 07:58:29;;;;;;;12.10;5.10;;;;;;;25.54;55.45;100054.97;5117918;28;20028;-73
2023/07/04 08:00:54;;;;;;;10.57;5.03;;;;;;;25.54;55.90;100044.19;5119660;28;20035;-73
2023/07/04 08:03:20;;;;;;;11.97;5.07;;;;;;;25.58;55.94;100037.59;5119597;28;20023;-73
2023/07/04 08:05:45;;;;;;;11.37;5.03;;;;;;;25.72;56.10;100048.28;5119568;28;20032;-73
2023/07/04 08:08:11;;;;;;;10.77;4.80;;;;;;;25.79;55.68;100046.84;5112249;28;20106;-73
2023/07/04 08:10:41;;;;;;;12.02;5.30;;;;;;;25.79;55.12;100041.47;5119263;28;20057;-73
2023/07/04 08:13:08;;;;;;;9.37;5.07;;;;;;;25.82;55.37;100045.78;5118501;28;20399;-73
2023/07/04 08:15:34;;;;;;;12.75;5.50;;;;;;;25.76;55.09;100041.69;5119448;28;20062;-73
2023/07/04 08:18:07;;;;;;;11.32;5.10;;;;;;;25.68;54.51;100052.13;5116881;28;20110;-73
2023/07/04 08:20:33;;;;;;;9.97;4.80;;;;;;;25.63;54.88;100052.47;5119068;28;20031;-73
2023/07/04 08:22:59;;;;;;;13.82;5.18;;;;;;;25.63;54.88;100055.19;5118924;28;20026;-73
2023/07/04 08:25:24;;;;;;;10.82;4.60;;;;;;;25.68;54.98;100040.50;5118663;28;20036;-73
2023/07/04 08:27:50;;;;;;;10.83;4.63;;;;;;;25.81;55.06;100038.66;5118258;28;20019;-73
2023/07/04 08:30:15;;;;;;;11.00;4.90;;;;;;;25.94;54.78;100039.50;5118008;28;20080;-73
2023/07/04 08:32:41;;;;;;;13.40;5.10;;;;;;;26.05;54.87;100033.31;5118914;28;20514;-75
2023/07/04 08:35:06;;;;;;;8.43;4.30;;;;;;;26.06;54.68;100031.50;5118994;28;20053;-72
2023/07/04 08:37:32;;;;;;;12.13;4.70;;;;;;;26.30;54.41;100026.13;5118620;28;20019;-73
2023/07/04 08:39:57;;;;;;;11.53;4.97;;;;;;;26.57;53.52;100030.44;5118748;28;20034;-73
2023/07/04 08:42:26;;;;;;;10.00;4.80;;;;;;;26.63;53.34;100013.75;5100304;28;20266;-73
2023/07/04 08:44:52;;;;;;;11.40;5.00;;;;;;;26.63;52.90;100002.13;5118737;28;20045;-73
2023/07/04 08:47:25;;;;;;;12.00;4.53;;;;;;;26.69;53.15;99990.84;5118034;28;20038;-73
2023/07/04 08:49:56;;;;;;;11.52;4.75;;;;;;;26.65;52.80;99989.34;5117609;28;20028;-73
2023/07/04 08:52:30;;;;;;;12.05;4.78;;;;;;;26.54;52.74;99998.28;5118812;28;20710;-73
2023/07/04 08:54:56;;;;;;;13.20;5.00;;;;;;;26.46;53.11;99989.91;5118617;28;20027;-73
2023/07/04 08:57:33;;;;;;;10.03;5.60;;;;;;;26.40;52.54;99985.81;5117765;28;20051;-73
2023/07/04 09:00:06;;;;;;;12.50;4.93;;;;;;;26.48;52.58;99993.34;5118252;28;20072;-73
2023/07/04 09:03:01;;;;;;;10.30;4.88;;;;;;;26.75;52.70;99994.91;5118697;28;20047;-73
2023/07/04 09:05:44;;;;;;;13.83;5.60;;;;;;;27.00;51.96;99991.19;5118435;28;20024;-75
2023/07/04 09:08:24;;;;;;;11.05;4.80;;;;;;;27.01;52.08;100005.59;5117839;28;20647;-75
2023/07/04 09:10:56;;;;;;;11.93;4.85;;;;;;;27.03;52.52;99992.81;5111995;28;20023;-75
2023/07/04 09:13:34;;;;;;;13.80;5.60;;;;;;;26.93;52.70;100012.44;5117993;28;20475;-75
2023/07/04 09:16:04;;;;;;;11.73;4.80;;;;;;;26.78;53.16;100005.50;5118072;28;20058;-75
2023/07/04 09:18:38;;;;;;;12.53;4.87;;;;;;;26.72;53.35;100005.97;5116010;28;20039;-75
2023/07/04 09:21:14;;;;;;;12.43;5.15;;;;;;;26.85;52.36;99997.81;5117885;28;20084;-76
2023/07/04 09:23:41;;;;;;;16.25;5.22;;;;;;;27.02;52.44;99994.66;5118270;28;20027;-74
2023/07/04 09:26:10;;;;;;;10.93;5.28;;;;;;;27.15;52.32;99991.88;5105148;28;20023;-74
2023/07/04 09:28:40;;;;;;;14.10;5.60;;;;;;;27.27;51.92;99994.56;5117477;28;20028;-74
2023/07/04 09:31:12;;;;;;;9.50;5.07;;;;;;;27.38;51.19;100000.00;5117358;28;20390;-73
2023/07/04 09:33:39;;;;;;;12.65;5.35;;;;;;;27.54;50.68;99996.09;5117810;28;20058;-73
2023/07/04 09:36:06;;;;;;;11.32;5.55;;;;;;;27.74;50.84;100002.63;5117792;28;20091;-74
2023/07/04 09:39:04;;;;;;;13.48;5.20;;;;;;;27.89;50.45;99995.09;5117446;28;20483;-73
2023/07/04 09:41:33;;;;;;;11.05;5.25;;;;;;;28.02;49.89;99997.66;5101312;28;20032;-74
2023/07/04 09:44:17;;;;;;;13.87;5.60;;;;;;;28.05;50.25;99995.53;5116823;28;20023;-73
2023/07/04 09:46:51;;;;;;;11.60;5.30;;;;;;;28.22;49.69;99993.31;5113970;28;20031;-74
2023/07/04 09:49:28;;;;;;;13.05;5.22;;;;;;;28.45;48.96;99995.97;5116842;28;20395;-74
2023/07/04 09:52:11;;;;;;;12.93;5.53;;;;;;;28.60;48.68;99989.25;5115116;28;20057;-74
2023/07/04 09:54:57;;;;;;;18.23;6.05;;;;;;;28.54;48.51;100005.16;5117523;28;20031;-74
2023/07/04 09:57:30;;;;;;;11.00;5.27;;;;;;;28.56;48.46;100004.03;5115530;28;20051;-74
2023/07/04 10:00:24;;;;;;;12.02;5.55;;;;;;;28.67;48.33;100005.81;5117228;28;20434;-74
2023/07/04 10:02:54;;;;;;;13.07;5.35;;;;;;;29.00;48.56;100011.25;5117396;28;20027;-74
2023/07/04 10:05:28;;;;;;;11.90;4.88;;;;;;;29.22;47.82;100000.25;5117481;28;20028;-74
2023/07/04 10:08:07;;;;;;;11.68;4.97;;;;;;;29.26;46.38;100005.41;5098628;28;20036;-74
2023/07/04 10:10:40;;;;;;;13.00;5.20;;;;;;;29.12;47.01;100004.78;5116937;28;20057;-74
2023/07/04 10:13:07;;;;;;;12.07;5.65;;;;;;;29.01;47.48;100010.25;5116908;28;20015;-74
2023/07/04 10:15:41;;;;;;;12.65;5.90;;;;;;;28.82;47.12;100011.84;5117138;28;20024;-74
2023/07/04 10:18:22;;;;;;;11.50;5.75;;;;;;;28.70;47.24;100015.56;5106355;28;20372;-74
2023/07/04 10:20:53;;;;;;;13.02;4.65;;;;;;;28.81;46.85;100010.09;5116818;28;20096;-74
2023/07/04 10:23:21;;;;;;;11.90;4.97;;;;;;;28.89;47.11;100010.31;5116598;28;20444;-74
2023/07/04 10:25:48;;;;;;;12.88;5.13;;;;;;;29.20;47.09;99999.53;5116955;28;20023;-74
2023/07/04 10:28:17;;;;;;;10.80;5.18;;;;;;;29.43;46.18;99993.13;5116868;28;20111;-74
2023/07/04 10:30:47;;;;;;;15.73;5.53;;;;;;;29.47;46.16;99994.56;5098632;28;20449;-74
2023/07/04 10:33:21;;;;;;;10.80;4.93;;;;;;;29.39;46.03;99994.34;5117086;28;20038;-74
2023/07/04 10:35:47;;;;;;;13.00;4.90;;;;;;;29.34;46.08;99992.06;5117269;28;20027;-74
2023/07/04 10:38:37;;;;;;;11.52;4.60;;;;;;;29.12;45.95;99996.63;5116809;28;20384;-74
2023/07/04 10:41:14;;;;;;;13.57;4.97;;;;;;;28.99;45.83;99999.56;5116637;28;20031;-74
2023/07/04 10:43:45;;;;;;;13.40;5.00;;;;;;;28.79;46.29;99993.13;5116586;28;20368;-74
2023/07/04 10:46:16;;;;;;;15.10;5.28;;;;;;;28.70;46.71;99999.31;5117005;28;20058;-74
2023/07/04 10:48:46;;;;;;;10.47;4.90;;;;;;;28.70;46.79;99999.31;5116645;28;20031;-74
2023/07/04 10:51:37;;;;;;;11.55;4.95;;;;;;;28.63;46.89;99999.84;5116635;28;20028;-74
2023/07/04 10:54:04;;;;;;;12.05;5.32;;;;;;;28.57;46.72;100013.03;5116956;28;20031;-74
2023/07/04 10:56:33;;;;;;;11.95;4.75;;;;;;;28.40;47.36;100009.03;5116659;28;20040;-74
2023/07/04 10:59:15;;;;;;;9.50;4.97;;;;;;;28.21;47.57;100015.97;5116531;28;20028;-74
2023/07/04 11:01:50;;;;;;;12.60;5.27;;;;;;;28.09;47.74;100017.81;5116359;28;20110;-74
2023/07/04 11:04:19;;;;;;;9.57;5.07;;;;;;;27.97;47.70;100026.91;5116789;28;20027;-74
2023/07/04 11:07:08;;;;;;;10.70;5.18;;;;;;;27.88;47.90;100020.44;5116647;28;20027;-74
2023/07/04 11:09:40;;;;;;;11.38;5.13;;;;;;;27.86;47.31;100025.13;5116569;28;20030;-74
2023/07/04 11:12:11;;;;;;;12.77;5.03;;;;;;;27.80;47.69;100027.31;5107471;28;20055;-74
2023/07/04 11:14:40;;;;;;;10.10;5.10;;;;;;;27.72;47.37;100027.06;5116735;28;20058;-74
2023/07/04 11:17:11;;;;;;;9.80;4.90;;;;;;;27.67;47.95;100023.88;5107244;28;20045;-74
2023/07/04 11:19:53;;;;;;;11.90;5.00;;;;;;;27.62;47.44;100018.00;5116230;28;20023;-74
2023/07/04 11:22:19;;;;;;;9.18;4.57;;;;;;;27.74;48.32;100018.84;5116597;28;20051;-74
2023/07/04 11:24:51;;;;;;;11.80;4.70;;;;;;;27.89;47.72;100022.16;5116652;28;20038;-74
2023/07/04 11:27:24;;;;;;;8.80;4.50;;;;;;;27.98;47.67;100017.84;5116240;28;20023;-74
2023/07/04 11:29:56;;;;;;;11.60;4.35;;;;;;;28.18;47.51;100014.38;5116664;28;20074;-74
2023/07/04 11:32:37;;;;;;;9.60;4.50;;;;;;;28.34;47.12;100016.69;5116228;28;20080;-74